createdAt,value
2018-09-04T00:02:19.154Z,98462.00
2018-09-04T00:04:48.071Z,98461.00
2018-09-04T00:07:19.869Z,98460.00
2018-09-04T00:09:49.729Z,98454.00
2018-09-04T00:12:18.778Z,98452.00
2018-09-04T00:14:47.756Z,98448.00
2018-09-04T00:17:16.680Z,98444.00
2018-09-04T00:19:45.641Z,98446.00
2018-09-04T00:22:14.619Z,98446.00
2018-09-04T00:24:43.586Z,98446.00
2018-09-04T00:27:12.583Z,98449.00
2018-09-04T00:29:41.451Z,98448.00
2018-09-04T00:32:10.263Z,98443.00
2018-09-04T00:34:39.176Z,98436.00
2018-09-04T00:37:08.096Z,98434.00
2018-09-04T00:39:36.930Z,98437.00
2018-09-04T00:42:06.303Z,98442.00
2018-09-04T00:44:35.226Z,98440.00
2018-09-04T00:47:04.084Z,98442.00
2018-09-04T00:49:32.804Z,98445.00
2018-09-04T00:52:01.486Z,98446.00
2018-09-04T00:54:30.159Z,98447.00
2018-09-04T00:56:58.806Z,98446.00
2018-09-04T00:59:27.485Z,98445.00
2018-09-04T01:01:56.736Z,98443.00
2018-09-04T01:04:25.446Z,98445.00
2018-09-04T01:06:54.194Z,98441.00
2018-09-04T01:09:23.255Z,98437.00
2018-09-04T01:11:52.196Z,98436.00
2018-09-04T01:14:21.036Z,98436.00
2018-09-04T01:16:50.243Z,98436.00
2018-09-04T01:19:18.994Z,98436.00
2018-09-04T01:21:47.676Z,98428.00
2018-09-04T01:24:16.426Z,98430.00
2018-09-04T01:26:45.166Z,98422.00
2018-09-04T01:29:13.993Z,98417.00
2018-09-04T01:31:42.807Z,98413.00
2018-09-04T01:34:11.606Z,98405.00
2018-09-04T01:36:40.346Z,98402.00
2018-09-04T01:39:09.135Z,98397.00
2018-09-04T01:41:37.826Z,98399.00
2018-09-04T01:44:06.584Z,98407.00
2018-09-04T01:46:35.264Z,98406.00
2018-09-04T01:49:03.946Z,98403.00
2018-09-04T01:51:32.666Z,98413.00
2018-09-04T01:54:01.344Z,98414.00
2018-09-04T01:56:30.044Z,98414.00
2018-09-04T01:58:58.854Z,98421.00
2018-09-04T02:01:27.670Z,98423.00
2018-09-04T02:03:56.501Z,98424.00
2018-09-04T02:06:25.311Z,98427.00
2018-09-04T02:08:54.079Z,98432.00
2018-09-04T02:11:22.723Z,98434.00
2018-09-04T02:13:51.383Z,98440.00
2018-09-04T02:16:20.116Z,98437.00
2018-09-04T02:18:48.786Z,98440.00
2018-09-04T02:21:17.531Z,98439.00
2018-09-04T02:23:46.191Z,98440.00
2018-09-04T02:26:14.936Z,98435.00
2018-09-04T02:28:43.711Z,98435.00
2018-09-04T02:31:12.467Z,98430.00
2018-09-04T02:33:41.099Z,98431.00
2018-09-04T02:36:09.761Z,98435.00
2018-09-04T02:38:38.414Z,98436.00
2018-09-04T02:41:07.431Z,98437.00
2018-09-04T02:43:36.194Z,98435.00
2018-09-04T02:46:05.306Z,98430.00
2018-09-04T02:48:34.026Z,98435.00
2018-09-04T02:51:02.878Z,98434.00
2018-09-04T02:53:31.554Z,98433.00
2018-09-04T02:56:00.224Z,98435.00
2018-09-04T02:58:29.004Z,98432.00
2018-09-04T03:00:57.759Z,98431.00
2018-09-04T03:03:26.673Z,98434.00
2018-09-04T03:05:55.473Z,98432.00
2018-09-04T03:08:24.288Z,98429.00
2018-09-04T03:10:53.054Z,98429.00
2018-09-04T03:13:21.858Z,98428.00
2018-09-04T03:15:50.591Z,98425.00
2018-09-04T03:18:19.376Z,98429.00
2018-09-04T03:20:48.118Z,98428.00
2018-09-04T03:23:17.095Z,98428.00
2018-09-04T03:25:45.845Z,98431.00
2018-09-04T03:28:14.551Z,98434.00
2018-09-04T03:30:43.376Z,98434.00
2018-09-04T03:33:12.121Z,98437.00
2018-09-04T03:35:40.891Z,98440.00
2018-09-04T03:38:09.698Z,98438.00
2018-09-04T03:40:38.483Z,98442.00
2018-09-04T03:43:07.714Z,98444.00
2018-09-04T03:45:36.506Z,98448.00
2018-09-04T03:48:06.261Z,98442.00
2018-09-04T03:50:35.099Z,98448.00
2018-09-04T03:53:03.856Z,98450.00
2018-09-04T03:55:32.728Z,98446.00
2018-09-04T03:58:01.597Z,98460.00
2018-09-04T04:00:30.451Z,98454.00
2018-09-04T04:02:59.171Z,98451.00
2018-09-04T04:05:27.824Z,98449.00
2018-09-04T04:07:56.567Z,98448.00
2018-09-04T04:10:25.263Z,98444.00
2018-09-04T04:12:54.056Z,98450.00
2018-09-04T04:15:22.858Z,98452.00
2018-09-04T04:17:51.626Z,98449.00
2018-09-04T04:20:20.441Z,98449.00
2018-09-04T04:22:49.275Z,98451.00
2018-09-04T04:25:17.984Z,98451.00
2018-09-04T04:27:46.813Z,98454.00
2018-09-04T04:30:15.545Z,98455.00
2018-09-04T04:32:44.463Z,98456.00
2018-09-04T04:35:13.419Z,98458.00
2018-09-04T04:37:42.191Z,98462.00
2018-09-04T04:40:11.046Z,98459.00
2018-09-04T04:42:39.837Z,98464.00
2018-09-04T04:45:08.640Z,98461.00
2018-09-04T04:47:42.860Z,98464.00
2018-09-04T04:50:11.479Z,98464.00
2018-09-04T04:52:40.443Z,98462.00
2018-09-04T04:55:09.165Z,98470.00
2018-09-04T04:57:37.840Z,98472.00
2018-09-04T05:00:07.199Z,98472.00
2018-09-04T05:02:36.126Z,98468.00
2018-09-04T05:05:05.046Z,98480.00
2018-09-04T05:07:33.930Z,98485.00
2018-09-04T05:10:02.906Z,98488.00
2018-09-04T05:12:31.803Z,98488.00
2018-09-04T05:15:00.540Z,98484.00
2018-09-04T05:17:29.288Z,98495.00
2018-09-04T05:19:58.148Z,98498.00
2018-09-04T05:22:26.844Z,98496.00
2018-09-04T05:24:55.578Z,98489.00
2018-09-04T05:27:24.370Z,98496.00
2018-09-04T05:29:53.352Z,98505.00
2018-09-04T05:32:29.326Z,98510.00
2018-09-04T05:34:58.095Z,98511.00
2018-09-04T05:37:26.803Z,98509.00
2018-09-04T05:39:55.478Z,98514.00
2018-09-04T05:42:29.096Z,98515.00
2018-09-04T05:44:57.785Z,98518.00
2018-09-04T05:47:31.015Z,98514.00
2018-09-04T05:49:59.943Z,98514.00
2018-09-04T05:52:28.996Z,98511.00
2018-09-04T05:54:57.950Z,98511.00
2018-09-04T05:57:26.742Z,98515.00
2018-09-04T05:59:55.548Z,98516.00
2018-09-04T06:02:24.447Z,98518.00
2018-09-04T06:04:53.140Z,98515.00
2018-09-04T06:07:21.825Z,98510.00
2018-09-04T06:09:50.591Z,98510.00
2018-09-04T06:12:19.340Z,98513.00
2018-09-04T06:14:48.080Z,98507.00
2018-09-04T06:17:16.790Z,98503.00
2018-09-04T06:19:45.556Z,98503.00
2018-09-04T06:22:14.288Z,98497.00
2018-09-04T06:24:43.075Z,98496.00
2018-09-04T06:27:11.993Z,98495.00
2018-09-04T06:29:40.833Z,98495.00
2018-09-04T06:32:11.068Z,98496.00
2018-09-04T06:34:39.883Z,98492.00
2018-09-04T06:37:08.687Z,98488.00
2018-09-04T06:39:37.516Z,98486.00
2018-09-04T06:42:06.496Z,98484.00
2018-09-04T06:44:35.393Z,98476.00
2018-09-04T06:47:04.308Z,98471.00
2018-09-04T06:49:33.045Z,98477.00
2018-09-04T06:52:02.638Z,98479.00
2018-09-04T06:54:31.388Z,98477.00
2018-09-04T06:57:00.723Z,98470.00
2018-09-04T06:59:29.458Z,98476.00
2018-09-04T07:01:58.286Z,98470.00
2018-09-04T07:04:26.928Z,98476.00
2018-09-04T07:06:55.603Z,98470.00
2018-09-04T07:09:24.196Z,98470.00
2018-09-04T07:11:52.919Z,98471.00
2018-09-04T07:14:21.545Z,98469.00
2018-09-04T07:16:51.289Z,98470.00
2018-09-04T07:19:21.292Z,98469.00
2018-09-04T07:21:50.317Z,98465.00
2018-09-04T07:24:19.214Z,98464.00
2018-09-04T07:26:47.934Z,98466.00
2018-09-04T07:29:16.724Z,98470.00
2018-09-04T07:31:45.456Z,98471.00
2018-09-04T07:34:14.210Z,98476.00
2018-09-04T07:36:42.973Z,98474.00
2018-09-04T07:39:12.161Z,98469.00
2018-09-04T07:41:41.175Z,98472.00
2018-09-04T07:44:09.808Z,98480.00
2018-09-04T07:46:38.418Z,98479.00
2018-09-04T07:49:07.103Z,98481.00
2018-09-04T07:51:35.811Z,98475.00
2018-09-04T07:54:04.653Z,98474.00
2018-09-04T07:56:33.513Z,98478.00
2018-09-04T07:59:02.266Z,98481.00
2018-09-04T08:01:30.911Z,98479.00
2018-09-04T08:03:59.559Z,98478.00
2018-09-04T08:06:28.258Z,98476.00
2018-09-04T08:08:56.956Z,98480.00
2018-09-04T08:11:25.705Z,98475.00
2018-09-04T08:13:54.385Z,98475.00
2018-09-04T08:16:23.053Z,98478.00
2018-09-04T08:18:51.792Z,98476.00
2018-09-04T08:21:20.574Z,98474.00
2018-09-04T08:23:49.310Z,98485.00
2018-09-04T08:26:18.109Z,98479.00
2018-09-04T08:28:46.893Z,98483.00
2018-09-04T08:31:15.701Z,98482.00
2018-09-04T08:33:44.459Z,98488.00
2018-09-04T08:36:13.258Z,98487.00
2018-09-04T08:38:47.506Z,98482.00
2018-09-04T08:41:16.293Z,98475.00
2018-09-04T08:43:44.962Z,98477.00
2018-09-04T08:46:13.615Z,98468.00
2018-09-04T08:48:42.368Z,98467.00
2018-09-04T08:51:11.034Z,98471.00
2018-09-04T08:53:39.735Z,98385.00
2018-09-04T08:56:08.386Z,98474.00
2018-09-04T08:58:37.166Z,98465.00
2018-09-04T09:01:06.043Z,98465.00
2018-09-04T09:03:34.938Z,98461.00
2018-09-04T09:06:03.694Z,98462.00
2018-09-04T09:08:32.473Z,98458.00
2018-09-04T09:11:01.238Z,98459.00
2018-09-04T09:13:29.993Z,98454.00
2018-09-04T09:15:59.289Z,98448.00
2018-09-04T09:18:28.034Z,98459.00
2018-09-04T09:20:56.798Z,98458.00
2018-09-04T09:23:25.573Z,98454.00
2018-09-04T09:25:54.407Z,98453.00
2018-09-04T09:28:23.154Z,98462.00
2018-09-04T09:30:51.852Z,98448.00
2018-09-04T09:33:20.491Z,98450.00
2018-09-04T09:35:49.188Z,98444.00
2018-09-04T09:38:17.927Z,98432.00
2018-09-04T09:40:46.634Z,98434.00
2018-09-04T09:43:15.303Z,98428.00
2018-09-04T09:45:43.893Z,98424.00
2018-09-04T09:48:12.547Z,98426.00
2018-09-04T09:50:41.235Z,98421.00
2018-09-04T09:53:09.887Z,98415.00
2018-09-04T09:55:38.524Z,98410.00
2018-09-04T09:58:07.189Z,98409.00
2018-09-04T10:00:41.478Z,98410.00
2018-09-04T10:03:15.671Z,98412.00
2018-09-04T10:05:44.334Z,98415.00
2018-09-04T10:08:13.040Z,98408.00
2018-09-04T10:10:41.783Z,98403.00
2018-09-04T10:13:10.416Z,98404.00
2018-09-04T10:15:39.147Z,98404.00
2018-09-04T10:18:07.932Z,98403.00
2018-09-04T10:20:36.651Z,98401.00
2018-09-04T10:23:05.584Z,98396.00
2018-09-04T10:25:34.379Z,98398.00
2018-09-04T10:28:03.228Z,98401.00
2018-09-04T10:30:32.354Z,98403.00
2018-09-04T10:33:01.199Z,98405.00
2018-09-04T10:35:29.913Z,98405.00
2018-09-04T10:37:58.633Z,98409.00
2018-09-04T10:40:32.914Z,98406.00
2018-09-04T10:43:01.586Z,98410.00
2018-09-04T10:45:35.883Z,98388.00
2018-09-04T10:48:04.801Z,98409.00
2018-09-04T10:50:34.583Z,98416.00
2018-09-04T10:53:03.256Z,98413.00
2018-09-04T10:55:32.138Z,98409.00
2018-09-04T10:58:00.941Z,98409.00
2018-09-04T11:00:29.713Z,98405.00
2018-09-04T11:02:58.619Z,98409.00
2018-09-04T11:05:27.499Z,98403.00
2018-09-04T11:07:56.253Z,98406.00
2018-09-04T11:10:25.037Z,98398.00
2018-09-04T11:12:53.922Z,98398.00
2018-09-04T11:15:22.803Z,98396.00
2018-09-04T11:17:51.586Z,98394.00
2018-09-04T11:20:20.539Z,98396.00
2018-09-04T11:22:50.264Z,98385.00
2018-09-04T11:25:19.032Z,98388.00
2018-09-04T11:27:47.751Z,98388.00
2018-09-04T11:30:16.541Z,98383.00
2018-09-04T11:32:45.659Z,98375.00
2018-09-04T11:35:14.564Z,98380.00
2018-09-04T11:37:43.840Z,98375.00
2018-09-04T11:40:16.104Z,98374.00
2018-09-04T11:42:44.930Z,98373.00
2018-09-04T11:45:14.046Z,98381.00
2018-09-04T11:47:42.729Z,98380.00
2018-09-04T11:50:11.991Z,98379.00
2018-09-04T11:52:40.741Z,98388.00
2018-09-04T11:55:10.174Z,98384.00
2018-09-04T11:57:38.942Z,98385.00
2018-09-04T12:00:10.745Z,98380.00
2018-09-04T12:02:40.649Z,98382.00
2018-09-04T12:05:09.832Z,98386.00
2018-09-04T12:07:38.680Z,98383.00
2018-09-04T12:10:08.024Z,98384.00
2018-09-04T12:12:37.862Z,98386.00
2018-09-04T12:15:06.619Z,98386.00
2018-09-04T12:17:35.427Z,98389.00
2018-09-04T12:21:10.436Z,98389.00
2018-09-04T12:23:39.976Z,98386.00
2018-09-04T12:26:09.807Z,98393.00
2018-09-04T12:28:38.518Z,98391.00
2018-09-04T12:31:07.887Z,98392.00
2018-09-04T12:33:36.542Z,98383.00
2018-09-04T12:36:06.058Z,98385.00
2018-09-04T12:38:39.558Z,98387.00
2018-09-04T12:41:16.189Z,98383.00
2018-09-04T12:43:44.991Z,98381.00
2018-09-04T12:46:13.799Z,98376.00
2018-09-04T12:48:48.232Z,98370.00
2018-09-04T12:51:17.141Z,98369.00
2018-09-04T12:53:45.999Z,98365.00
2018-09-04T12:56:15.042Z,98364.00
2018-09-04T12:58:43.831Z,98361.00
2018-09-04T13:01:12.980Z,98355.00
2018-09-04T13:03:41.734Z,98351.00
2018-09-04T13:06:10.627Z,98362.00
2018-09-04T13:08:39.362Z,98357.00
2018-09-04T13:11:08.739Z,98361.00
2018-09-04T13:13:38.500Z,98358.00
2018-09-04T13:16:07.355Z,98354.00
2018-09-04T13:18:36.124Z,98354.00
2018-09-04T13:21:05.326Z,98358.00
2018-09-04T13:23:35.025Z,98362.00
2018-09-04T13:26:04.714Z,98365.00
2018-09-04T13:28:34.179Z,98359.00
2018-09-04T13:31:02.986Z,98356.00
2018-09-04T13:33:31.599Z,98351.00
2018-09-04T13:36:00.356Z,98351.00
2018-09-04T13:38:29.281Z,98352.00
2018-09-04T13:41:03.526Z,98351.00
2018-09-04T13:43:32.350Z,98352.00
2018-09-04T13:46:01.286Z,98349.00
2018-09-04T13:48:32.492Z,98350.00
2018-09-04T13:51:02.516Z,98353.00
2018-09-04T13:53:31.954Z,98356.00
2018-09-04T13:56:00.775Z,98361.00
2018-09-04T13:58:29.627Z,98357.00
2018-09-04T14:00:58.482Z,98363.00
2018-09-04T14:03:27.272Z,98369.00
2018-09-04T14:05:55.980Z,98373.00
2018-09-04T14:08:24.761Z,98379.00
2018-09-04T14:10:53.399Z,98380.00
2018-09-04T14:13:22.162Z,98388.00
2018-09-04T14:15:54.669Z,98386.00
2018-09-04T14:18:23.459Z,98387.00
2018-09-04T14:20:52.462Z,98388.00
2018-09-04T14:23:21.666Z,98392.00
2018-09-04T14:25:51.391Z,98387.00
2018-09-04T14:28:40.975Z,98390.00
2018-09-04T14:30:49.092Z,98384.00
2018-09-04T14:33:17.793Z,98393.00
2018-09-04T14:35:47.157Z,98391.00
2018-09-04T14:38:15.926Z,98398.00
2018-09-04T14:40:45.344Z,98401.00
2018-09-04T14:43:15.527Z,98389.00
2018-09-04T14:45:44.326Z,98389.00
2018-09-04T14:48:13.045Z,98395.00
2018-09-04T14:50:41.792Z,98398.00
2018-09-04T14:53:10.492Z,98398.00
2018-09-04T14:55:39.275Z,98395.00
2018-09-04T14:58:08.035Z,98391.00
2018-09-04T15:00:37.599Z,98382.00
2018-09-04T15:03:06.437Z,98389.00
2018-09-04T15:05:35.159Z,98396.00
2018-09-04T15:08:03.889Z,98396.00
2018-09-04T15:10:32.759Z,98396.00
2018-09-04T15:13:01.500Z,98393.00
2018-09-04T15:15:30.381Z,98391.00
2018-09-04T15:17:59.374Z,98395.00
2018-09-04T15:20:28.815Z,98395.00
2018-09-04T15:22:57.614Z,98395.00
2018-09-04T15:25:26.401Z,98399.00
2018-09-04T15:27:55.329Z,98403.00
2018-09-04T15:30:24.444Z,98403.00
2018-09-04T15:32:53.569Z,98398.00
2018-09-04T15:35:22.648Z,98395.00
2018-09-04T15:37:51.791Z,98387.00
2018-09-04T15:40:21.212Z,98386.00
2018-09-04T15:42:50.385Z,98363.00
2018-09-04T15:45:19.700Z,98394.00
2018-09-04T15:47:48.968Z,98393.00
2018-09-04T15:50:18.040Z,98398.00
2018-09-04T15:52:46.942Z,98413.00
2018-09-04T15:55:15.948Z,98410.00
2018-09-04T15:57:45.170Z,98406.00
2018-09-04T16:00:14.534Z,98401.00
2018-09-04T16:02:43.922Z,98397.00
2018-09-04T16:05:13.485Z,98397.00
2018-09-04T16:07:42.533Z,98403.00
2018-09-04T16:10:11.712Z,98402.00
2018-09-04T16:12:40.620Z,98397.00
2018-09-04T16:15:09.556Z,98401.00
2018-09-04T16:17:38.541Z,98399.00
2018-09-04T16:20:07.581Z,98404.00
2018-09-04T16:22:36.739Z,98403.00
2018-09-04T16:25:05.731Z,98398.00
2018-09-04T16:27:34.451Z,98399.00
2018-09-04T16:30:03.140Z,98401.00
2018-09-04T16:32:31.834Z,98407.00
2018-09-04T16:35:00.709Z,98406.00
2018-09-04T16:37:29.473Z,98408.00
2018-09-04T16:39:58.272Z,98408.00
2018-09-04T16:42:27.109Z,98400.00
2018-09-04T16:44:55.994Z,98397.00
2018-09-04T16:47:24.827Z,98406.00
2018-09-04T16:49:53.617Z,98404.00
2018-09-04T16:52:22.530Z,98401.00
2018-09-04T16:54:51.439Z,98397.00
2018-09-04T16:57:20.404Z,98396.00
2018-09-04T16:59:49.392Z,98394.00
2018-09-04T17:02:18.314Z,98396.00
2018-09-04T17:04:47.919Z,98397.00
2018-09-04T17:07:16.641Z,98393.00
2018-09-04T17:09:45.425Z,98396.00
2018-09-04T17:12:14.323Z,98394.00
2018-09-04T17:14:43.154Z,98393.00
2018-09-04T17:17:11.959Z,98393.00
2018-09-04T17:19:40.647Z,98395.00
2018-09-04T17:22:09.459Z,98394.00
2018-09-04T17:24:38.269Z,98398.00
2018-09-04T17:27:07.274Z,98399.00
2018-09-04T17:29:36.130Z,98401.00
2018-09-04T17:32:04.909Z,98408.00
2018-09-04T17:34:34.592Z,98412.00
2018-09-04T17:37:03.351Z,98415.00
2018-09-04T17:39:32.074Z,98423.00
2018-09-04T17:42:00.897Z,98424.00
2018-09-04T17:44:29.954Z,98427.00
2018-09-04T17:46:58.929Z,98433.00
2018-09-04T17:49:27.824Z,98432.00
2018-09-04T17:51:56.757Z,98437.00
2018-09-04T17:54:25.688Z,98440.00
2018-09-04T17:56:54.603Z,98439.00
2018-09-04T17:59:23.438Z,98438.00
